Flight Track Log - Related Links

Times and Time Zones

All times are in EDT time to prevent confusion due to time zone crossing. See the CTL14 flight status page for this flight to view local times or setup timezone preferences in your user account.

Time Position Orientation Groundspeed Altitude Reporting Facility
EDT Latitude Longitude Course Direction KTS MPH feet Rate Location/Type
Thu 02:45:08 AM 40.0642 -83.1433 248° West 102 117 2,800  Level Indianapolis Center
Thu 02:46:09 AM 40.0533 -83.1775 248° West 105 121 3,600 787 Climbing Indianapolis Center
Thu 02:47:10 AM 40.0442 -83.2172 253° West 110 127 4,400 793 Climbing Indianapolis Center
Thu 02:48:10 AM 40.0311 -83.2567 247° West 108 124 5,200 694 Climbing Indianapolis Center
Thu 02:49:11 AM 40.0222 -83.2936 253° West 111 128 5,800 446 Climbing Indianapolis Center
Thu 02:50:11 AM 40.0108 -83.3331 249° West 116 133 6,100 149 Climbing Indianapolis Center
Thu 02:51:12 AM 39.9972 -83.3778 248° West 137 158 6,100 49 Level Indianapolis Center
Thu 02:52:13 AM 39.9856 -83.4253 252° West 141 162 6,200 50 Climbing Indianapolis Center
Thu 02:53:13 AM 39.9717 -83.4725 249° West 140 161 6,200  Level Indianapolis Center
Thu 02:54:14 AM 39.9575 -83.5225 250° West 140 161 6,200 -50 Level Indianapolis Center
Thu 02:55:14 AM 39.9433 -83.5725 250° West 142 163 6,100 -50 Descending Indianapolis Center
Thu 02:56:15 AM 39.9314 -83.6200 252° West 141 162 6,100 -49 Level Indianapolis Center
Thu 02:57:16 AM 39.9192 -83.6689 252° West 141 162 6,000 -50 Descending Indianapolis Center
Thu 02:58:16 AM 39.9056 -83.7175 250° West 140 161 6,000  Level Indianapolis Center
Thu 02:59:17 AM 39.8933 -83.7675 252° West 143 165 6,000  Level Indianapolis Center
Thu 03:00:17 AM 39.8814 -83.8150 252° West 143 165 6,000  Level Indianapolis Center
Thu 03:01:17 AM 39.8692 -83.8564 249° West 143 165 6,000  Level Indianapolis Center
Thu 03:02:17 AM 39.8558 -83.9053 250° West 142 163 6,000  Level Indianapolis Center
Thu 03:03:17 AM 39.8414 -83.9519 248° West 141 162 6,000  Level Indianapolis Center
Thu 03:04:17 AM 39.8258 -83.9994 247° West 140 161 6,000  Level Indianapolis Center
Thu 03:05:18 AM 39.8117 -84.0461 248° West 140 161 6,000 50 Level Indianapolis Center
Thu 03:06:18 AM 39.7950 -84.0908 244° Southwest 137 158 6,100 50 Climbing Indianapolis Center
Thu 03:07:18 AM 39.7819 -84.1397 251° West 139 160 6,100 -50 Level Indianapolis Center
Thu 03:08:18 AM 39.7697 -84.1900 252° West 143 165 6,000 -50 Descending Indianapolis Center
Thu 03:09:18 AM 39.7561 -84.2375 250° West 142 163 6,000  Level Indianapolis Center
Thu 03:10:19 AM 39.7422 -84.2864 250° West 141 162 6,000 50 Level Indianapolis Center
Thu 03:11:19 AM 39.7286 -84.3328 249° West 139 160 6,100  Climbing Indianapolis Center
Thu 03:12:19 AM 39.7153 -84.3786 249° West 137 158 6,000 -50 Descending Indianapolis Center
Thu 03:13:19 AM 39.7022 -84.4247 250° West 135 155 6,000  Level Indianapolis Center
Thu 03:14:20 AM 39.6881 -84.4736 249° West 140 161 6,000  Level Indianapolis Center
Thu 03:15:20 AM 39.6753 -84.5197 250° West 137 158 6,000  Level Indianapolis Center
Thu 03:16:20 AM 39.6608 -84.5650 248° West 136 157 6,000  Level Indianapolis Center
Thu 03:17:20 AM 39.6472 -84.6133 250° West 139 160 6,000  Level Indianapolis Center
Thu 03:18:20 AM 39.6336 -84.6597 249° West 138 159 6,000  Level Indianapolis Center
Thu 03:19:21 AM 39.6206 -84.7061 250° West 136 157 6,000  Level Indianapolis Center
Thu 03:20:21 AM 39.6058 -84.7536 248° West 139 160 6,000  Level Indianapolis Center
Thu 03:21:21 AM 39.5925 -84.7992 249° West 136 157 6,000  Level Indianapolis Center
Thu 03:22:21 AM 39.5811 -84.8450 252° West 135 155 6,000 50 Level Indianapolis Center
Thu 03:23:22 AM 39.5672 -84.8906 248° West 134 154 6,100 50 Climbing Indianapolis Center
Thu 03:24:22 AM 39.5553 -84.9367 251° West 134 154 6,100  Level Indianapolis Center
Thu 03:25:22 AM 39.5422 -84.9739 246° West 134 154 6,100  Level Indianapolis Center
Thu 03:26:22 AM 39.5297 -85.0200 251° West 134 154 6,100 -298 Level Indianapolis Center
Thu 03:27:23 AM 39.5147 -85.0672 248° West 137 158 5,500 -496 Descending Indianapolis Center
Thu 03:28:23 AM 39.4975 -85.1172 246° West 145 167 5,100 -300 Descending Indianapolis Center
Thu 03:29:23 AM 39.4819 -85.1714 250° West 145 167 4,900 -308 Descending Indianapolis Center
Thu 03:31:38 AM 39.4500 -85.2667 247° West 132 152 4,100 -246 Descending Indianapolis TRACON
Thu 03:32:38 AM 39.4333 -85.3167 247° West 128 147 4,100  Level Indianapolis TRACON
Thu 03:33:38 AM 39.4167 -85.3500 237° Southwest 128 147 4,100 -50 Level Indianapolis TRACON
Thu 03:34:38 AM 39.4167 -85.4000 270° West 128 147 4,000  Descending Indianapolis TRACON
Thu 03:35:38 AM 39.4000 -85.4333 237° Southwest 128 147 4,100  Climbing Indianapolis TRACON
Thu 03:36:44 AM 39.3833 -85.4833 247° West 128 147 4,000 -91 Descending Indianapolis TRACON

Login

Don't have an account? Register now (free) for customized features, flight alerts, and more!